sensor_id;sensor_type;location;lat;lon;timestamp;temperature;humidity
13713;DHT22;6928;50.546;7.120;2023-04-22T00:02:10;9.16;90.07
13713;DHT22;6928;50.546;7.120;2023-04-22T00:04:39;9.44;89.27
13713;DHT22;6928;50.546;7.120;2023-04-22T00:07:06;9.50;88.98
13713;DHT22;6928;50.546;7.120;2023-04-22T00:09:34;9.57;88.61
13713;DHT22;6928;50.546;7.120;2023-04-22T00:12:02;9.58;88.45
13713;DHT22;6928;50.546;7.120;2023-04-22T00:14:29;9.57;88.61
13713;DHT22;6928;50.546;7.120;2023-04-22T00:16:56;9.46;89.51
13713;DHT22;6928;50.546;7.120;2023-04-22T00:19:23;9.43;89.25
13713;DHT22;6928;50.546;7.120;2023-04-22T00:21:50;9.50;89.15
13713;DHT22;6928;50.546;7.120;2023-04-22T00:24:16;9.51;88.86
13713;DHT22;6928;50.546;7.120;2023-04-22T00:26:43;9.48;88.92
13713;DHT22;6928;50.546;7.120;2023-04-22T00:29:11;9.51;89.20
13713;DHT22;6928;50.546;7.120;2023-04-22T00:31:38;9.52;89.25
13713;DHT22;6928;50.546;7.120;2023-04-22T00:34:05;9.51;89.10
13713;DHT22;6928;50.546;7.120;2023-04-22T00:36:32;9.46;89.41
13713;DHT22;6928;50.546;7.120;2023-04-22T00:38:58;9.48;89.88
13713;DHT22;6928;50.546;7.120;2023-04-22T00:41:26;9.55;89.27
13713;DHT22;6928;50.546;7.120;2023-04-22T00:43:53;9.65;89.01
13713;DHT22;6928;50.546;7.120;2023-04-22T00:46:22;9.58;89.14
13713;DHT22;6928;50.546;7.120;2023-04-22T00:48:49;9.60;89.03
13713;DHT22;6928;50.546;7.120;2023-04-22T00:51:16;9.55;89.18
13713;DHT22;6928;50.546;7.120;2023-04-22T00:53:42;9.51;89.49
13713;DHT22;6928;50.546;7.120;2023-04-22T00:56:10;9.58;89.28
13713;DHT22;6928;50.546;7.120;2023-04-22T00:58:37;9.64;89.45
13713;DHT22;6928;50.546;7.120;2023-04-22T01:01:04;9.67;89.43
13713;DHT22;6928;50.546;7.120;2023-04-22T01:03:32;9.61;89.61
13713;DHT22;6928;50.546;7.120;2023-04-22T01:06:01;9.57;89.85
13713;DHT22;6928;50.546;7.120;2023-04-22T01:08:28;9.64;89.73
13713;DHT22;6928;50.546;7.120;2023-04-22T01:10:55;9.77;89.08
13713;DHT22;6928;50.546;7.120;2023-04-22T01:13:22;9.78;89.04
13713;DHT22;6928;50.546;7.120;2023-04-22T01:15:49;9.70;89.47
13713;DHT22;6928;50.546;7.120;2023-04-22T01:18:18;9.72;89.37
13713;DHT22;6928;50.546;7.120;2023-04-22T01:20:46;9.81;89.14
13713;DHT22;6928;50.546;7.120;2023-04-22T01:23:17;9.74;89.26
13713;DHT22;6928;50.546;7.120;2023-04-22T01:25:45;9.78;89.21
13713;DHT22;6928;50.546;7.120;2023-04-22T01:28:12;9.30;91.07
13713;DHT22;6928;50.546;7.120;2023-04-22T01:30:41;9.54;90.80
13713;DHT22;6928;50.546;7.120;2023-04-22T01:33:08;9.67;90.03
13713;DHT22;6928;50.546;7.120;2023-04-22T01:35:35;9.65;90.05
13713;DHT22;6928;50.546;7.120;2023-04-22T01:38:02;9.47;90.58
13713;DHT22;6928;50.546;7.120;2023-04-22T01:40:31;9.44;90.86
13713;DHT22;6928;50.546;7.120;2023-04-22T01:42:59;9.58;90.58
13713;DHT22;6928;50.546;7.120;2023-04-22T01:45:26;9.70;90.34
13713;DHT22;6928;50.546;7.120;2023-04-22T01:47:53;9.68;90.16
13713;DHT22;6928;50.546;7.120;2023-04-22T01:50:21;9.68;90.17
13713;DHT22;6928;50.546;7.120;2023-04-22T01:52:48;9.71;89.99
13713;DHT22;6928;50.546;7.120;2023-04-22T01:55:15;9.72;89.92
13713;DHT22;6928;50.546;7.120;2023-04-22T01:57:43;9.77;89.66
13713;DHT22;6928;50.546;7.120;2023-04-22T02:00:11;9.62;90.26
13713;DHT22;6928;50.546;7.120;2023-04-22T02:02:38;9.75;90.03
13713;DHT22;6928;50.546;7.120;2023-04-22T02:05:07;9.52;90.99
13713;DHT22;6928;50.546;7.120;2023-04-22T02:07:33;9.31;91.47
13713;DHT22;6928;50.546;7.120;2023-04-22T02:10:01;9.52;90.94
13713;DHT22;6928;50.546;7.120;2023-04-22T02:12:29;9.68;90.39
13713;DHT22;6928;50.546;7.120;2023-04-22T02:14:58;9.64;90.03
13713;DHT22;6928;50.546;7.120;2023-04-22T02:17:25;9.58;90.58
13713;DHT22;6928;50.546;7.120;2023-04-22T02:19:52;9.62;90.22
13713;DHT22;6928;50.546;7.120;2023-04-22T02:22:18;9.68;90.18
13713;DHT22;6928;50.546;7.120;2023-04-22T02:24:45;9.65;90.02
13713;DHT22;6928;50.546;7.120;2023-04-22T02:27:12;9.55;90.40
13713;DHT22;6928;50.546;7.120;2023-04-22T02:29:39;9.62;90.35
13713;DHT22;6928;50.546;7.120;2023-04-22T02:32:07;9.75;89.67
13713;DHT22;6928;50.546;7.120;2023-04-22T02:34:34;9.75;89.55
13713;DHT22;6928;50.546;7.120;2023-04-22T02:37:00;9.71;89.84
13713;DHT22;6928;50.546;7.120;2023-04-22T02:39:27;9.74;89.90
13713;DHT22;6928;50.546;7.120;2023-04-22T02:41:54;9.82;89.55
13713;DHT22;6928;50.546;7.120;2023-04-22T02:44:20;9.79;89.40
13713;DHT22;6928;50.546;7.120;2023-04-22T02:46:47;9.75;89.78
13713;DHT22;6928;50.546;7.120;2023-04-22T02:49:15;9.65;90.35
13713;DHT22;6928;50.546;7.120;2023-04-22T02:51:42;9.29;91.36
13713;DHT22;6928;50.546;7.120;2023-04-22T02:54:09;9.33;92.01
13713;DHT22;6928;50.546;7.120;2023-04-22T02:56:35;9.62;90.68
13713;DHT22;6928;50.546;7.120;2023-04-22T02:59:02;9.62;90.28
13713;DHT22;6928;50.546;7.120;2023-04-22T03:01:29;9.70;90.23
13713;DHT22;6928;50.546;7.120;2023-04-22T03:03:56;9.58;90.47
13713;DHT22;6928;50.546;7.120;2023-04-22T03:06:24;9.65;90.36
13713;DHT22;6928;50.546;7.120;2023-04-22T03:08:51;9.61;90.69
13713;DHT22;6928;50.546;7.120;2023-04-22T03:11:18;9.57;90.58
13713;DHT22;6928;50.546;7.120;2023-04-22T03:13:45;9.65;90.41
13713;DHT22;6928;50.546;7.120;2023-04-22T03:16:12;9.55;90.60
13713;DHT22;6928;50.546;7.120;2023-04-22T03:18:38;9.52;90.70
13713;DHT22;6928;50.546;7.120;2023-04-22T03:21:06;9.62;90.41
13713;DHT22;6928;50.546;7.120;2023-04-22T03:23:34;9.37;90.79
13713;DHT22;6928;50.546;7.120;2023-04-22T03:26:01;9.43;91.15
13713;DHT22;6928;50.546;7.120;2023-04-22T03:28:27;9.48;90.88
13713;DHT22;6928;50.546;7.120;2023-04-22T03:30:54;9.64;90.53
13713;DHT22;6928;50.546;7.120;2023-04-22T03:33:21;9.57;90.35
13713;DHT22;6928;50.546;7.120;2023-04-22T03:35:48;9.55;90.32
13713;DHT22;6928;50.546;7.120;2023-04-22T03:38:15;9.62;90.31
13713;DHT22;6928;50.546;7.120;2023-04-22T03:40:43;9.57;90.27
13713;DHT22;6928;50.546;7.120;2023-04-22T03:43:10;9.54;90.34
13713;DHT22;6928;50.546;7.120;2023-04-22T03:45:36;9.55;90.32
13713;DHT22;6928;50.546;7.120;2023-04-22T03:48:04;9.16;91.97
13713;DHT22;6928;50.546;7.120;2023-04-22T03:50:32;9.34;91.68
13713;DHT22;6928;50.546;7.120;2023-04-22T03:52:59;9.37;91.30
13713;DHT22;6928;50.546;7.120;2023-04-22T03:55:25;9.48;90.89
13713;DHT22;6928;50.546;7.120;2023-04-22T03:57:53;9.31;91.49
13713;DHT22;6928;50.546;7.120;2023-04-22T04:00:20;9.40;91.35
13713;DHT22;6928;50.546;7.120;2023-04-22T04:02:47;9.47;90.96
13713;DHT22;6928;50.546;7.120;2023-04-22T04:05:14;9.47;91.16
13713;DHT22;6928;50.546;7.120;2023-04-22T04:07:41;9.43;90.97
13713;DHT22;6928;50.546;7.120;2023-04-22T04:10:09;9.26;91.32
13713;DHT22;6928;50.546;7.120;2023-04-22T04:12:36;9.19;91.88
13713;DHT22;6928;50.546;7.120;2023-04-22T04:15:06;9.08;92.38
13713;DHT22;6928;50.546;7.120;2023-04-22T04:17:33;9.19;91.69
13713;DHT22;6928;50.546;7.120;2023-04-22T04:20:00;9.33;91.15
13713;DHT22;6928;50.546;7.120;2023-04-22T04:22:27;9.29;91.04
13713;DHT22;6928;50.546;7.120;2023-04-22T04:24:54;9.36;90.89
13713;DHT22;6928;50.546;7.120;2023-04-22T04:27:21;9.39;90.84
13713;DHT22;6928;50.546;7.120;2023-04-22T04:29:49;9.39;90.93
13713;DHT22;6928;50.546;7.120;2023-04-22T04:32:18;9.41;90.79
13713;DHT22;6928;50.546;7.120;2023-04-22T04:34:44;9.37;90.81
13713;DHT22;6928;50.546;7.120;2023-04-22T04:37:11;9.23;91.22
13713;DHT22;6928;50.546;7.120;2023-04-22T04:39:39;9.30;91.11
13713;DHT22;6928;50.546;7.120;2023-04-22T04:42:10;9.26;91.34
13713;DHT22;6928;50.546;7.120;2023-04-22T04:44:38;9.39;91.26
13713;DHT22;6928;50.546;7.120;2023-04-22T04:47:05;9.34;91.04
13713;DHT22;6928;50.546;7.120;2023-04-22T04:49:33;9.43;90.88
13713;DHT22;6928;50.546;7.120;2023-04-22T04:52:04;9.26;91.23
13713;DHT22;6928;50.546;7.120;2023-04-22T04:54:32;9.30;91.59
13713;DHT22;6928;50.546;7.120;2023-04-22T04:56:58;9.39;91.11
13713;DHT22;6928;50.546;7.120;2023-04-22T04:59:26;9.41;91.04
13713;DHT22;6928;50.546;7.120;2023-04-22T05:01:53;9.40;90.85
13713;DHT22;6928;50.546;7.120;2023-04-22T05:04:20;9.34;91.07
13713;DHT22;6928;50.546;7.120;2023-04-22T05:06:48;9.40;91.43
13713;DHT22;6928;50.546;7.120;2023-04-22T05:09:15;9.26;91.69
13713;DHT22;6928;50.546;7.120;2023-04-22T05:11:42;9.34;91.61
13713;DHT22;6928;50.546;7.120;2023-04-22T05:14:09;9.57;91.06
13713;DHT22;6928;50.546;7.120;2023-04-22T05:16:36;9.55;90.91
13713;DHT22;6928;50.546;7.120;2023-04-22T05:19:02;9.54;91.29
13713;DHT22;6928;50.546;7.120;2023-04-22T05:21:29;9.51;91.33
13713;DHT22;6928;50.546;7.120;2023-04-22T05:23:58;9.41;91.44
13713;DHT22;6928;50.546;7.120;2023-04-22T05:26:25;9.50;91.66
13713;DHT22;6928;50.546;7.120;2023-04-22T05:28:52;9.57;91.24
13713;DHT22;6928;50.546;7.120;2023-04-22T05:31:19;9.62;91.06
13713;DHT22;6928;50.546;7.120;2023-04-22T05:33:46;9.64;91.20
13713;DHT22;6928;50.546;7.120;2023-04-22T05:36:13;9.65;91.42
13713;DHT22;6928;50.546;7.120;2023-04-22T05:38:39;9.62;91.12
13713;DHT22;6928;50.546;7.120;2023-04-22T05:41:07;9.61;91.64
13713;DHT22;6928;50.546;7.120;2023-04-22T05:43:34;9.62;91.78
13713;DHT22;6928;50.546;7.120;2023-04-22T05:46:01;9.68;91.48
13713;DHT22;6928;50.546;7.120;2023-04-22T05:48:28;9.75;91.56
13713;DHT22;6928;50.546;7.120;2023-04-22T05:50:55;9.79;91.20
13713;DHT22;6928;50.546;7.120;2023-04-22T05:53:21;9.82;91.22
13713;DHT22;6928;50.546;7.120;2023-04-22T05:55:49;9.89;90.79
13713;DHT22;6928;50.546;7.120;2023-04-22T05:58:17;9.92;91.20
13713;DHT22;6928;50.546;7.120;2023-04-22T06:00:43;9.85;91.50
13713;DHT22;6928;50.546;7.120;2023-04-22T06:03:10;10.03;90.93
13713;DHT22;6928;50.546;7.120;2023-04-22T06:05:37;10.01;91.17
13713;DHT22;6928;50.546;7.120;2023-04-22T06:08:04;10.13;90.82
13713;DHT22;6928;50.546;7.120;2023-04-22T06:10:30;10.16;90.94
13713;DHT22;6928;50.546;7.120;2023-04-22T06:12:57;10.25;90.76
13713;DHT22;6928;50.546;7.120;2023-04-22T06:15:25;10.39;90.22
13713;DHT22;6928;50.546;7.120;2023-04-22T06:17:52;10.32;90.30
13713;DHT22;6928;50.546;7.120;2023-04-22T06:20:19;10.41;90.44
13713;DHT22;6928;50.546;7.120;2023-04-22T06:22:46;10.50;90.28
13713;DHT22;6928;50.546;7.120;2023-04-22T06:25:13;10.61;90.02
13713;DHT22;6928;50.546;7.120;2023-04-22T06:27:39;10.66;89.68
13713;DHT22;6928;50.546;7.120;2023-04-22T06:30:07;10.88;89.52
13713;DHT22;6928;50.546;7.120;2023-04-22T06:32:37;11.28;89.00
13713;DHT22;6928;50.546;7.120;2023-04-22T06:35:06;11.34;88.34
13713;DHT22;6928;50.546;7.120;2023-04-22T06:37:32;11.53;87.50
13713;DHT22;6928;50.546;7.120;2023-04-22T06:39:59;11.60;86.65
13713;DHT22;6928;50.546;7.120;2023-04-22T06:42:26;11.74;86.70
13713;DHT22;6928;50.546;7.120;2023-04-22T06:44:53;11.91;85.66
13713;DHT22;6928;50.546;7.120;2023-04-22T06:47:20;12.09;85.71
13713;DHT22;6928;50.546;7.120;2023-04-22T06:49:48;12.17;84.50
13713;DHT22;6928;50.546;7.120;2023-04-22T06:52:15;12.02;83.84
13713;DHT22;6928;50.546;7.120;2023-04-22T06:54:42;12.08;84.98
13713;DHT22;6928;50.546;7.120;2023-04-22T06:57:09;12.20;85.07
13713;DHT22;6928;50.546;7.120;2023-04-22T06:59:35;12.27;83.79
13713;DHT22;6928;50.546;7.120;2023-04-22T07:02:02;12.52;84.66
13713;DHT22;6928;50.546;7.120;2023-04-22T07:04:30;12.66;84.29
13713;DHT22;6928;50.546;7.120;2023-04-22T07:06:58;12.83;83.22
13713;DHT22;6928;50.546;7.120;2023-04-22T07:09:25;12.92;82.91
13713;DHT22;6928;50.546;7.120;2023-04-22T07:11:53;13.20;83.65
13713;DHT22;6928;50.546;7.120;2023-04-22T07:14:24;13.28;83.05
13713;DHT22;6928;50.546;7.120;2023-04-22T07:16:51;13.42;82.80
13713;DHT22;6928;50.546;7.120;2023-04-22T07:19:19;13.87;78.82
13713;DHT22;6928;50.546;7.120;2023-04-22T07:21:46;14.76;73.78
13713;DHT22;6928;50.546;7.120;2023-04-22T07:24:14;15.24;70.24
13713;DHT22;6928;50.546;7.120;2023-04-22T07:26:42;15.61;67.13
13713;DHT22;6928;50.546;7.120;2023-04-22T07:29:09;15.88;66.58
13713;DHT22;6928;50.546;7.120;2023-04-22T07:31:37;15.85;65.48
13713;DHT22;6928;50.546;7.120;2023-04-22T07:34:04;15.92;63.89
13713;DHT22;6928;50.546;7.120;2023-04-22T07:36:31;15.99;65.21
13713;DHT22;6928;50.546;7.120;2023-04-22T07:38:58;16.46;64.44
13713;DHT22;6928;50.546;7.120;2023-04-22T07:41:26;16.32;64.45
13713;DHT22;6928;50.546;7.120;2023-04-22T07:43:53;16.54;64.58
13713;DHT22;6928;50.546;7.120;2023-04-22T07:46:20;16.46;63.87
13713;DHT22;6928;50.546;7.120;2023-04-22T07:48:47;16.65;62.56
13713;DHT22;6928;50.546;7.120;2023-04-22T07:51:14;16.54;63.31
13713;DHT22;6928;50.546;7.120;2023-04-22T07:53:41;16.80;62.91
13713;DHT22;6928;50.546;7.120;2023-04-22T07:56:08;17.00;60.90
13713;DHT22;6928;50.546;7.120;2023-04-22T07:58:36;17.04;62.07
13713;DHT22;6928;50.546;7.120;2023-04-22T08:01:03;16.90;62.55
13713;DHT22;6928;50.546;7.120;2023-04-22T08:03:30;16.84;62.45
13713;DHT22;6928;50.546;7.120;2023-04-22T08:05:57;17.00;60.39
13713;DHT22;6928;50.546;7.120;2023-04-22T08:08:24;17.26;59.31
13713;DHT22;6928;50.546;7.120;2023-04-22T08:10:51;17.11;60.22
13713;DHT22;6928;50.546;7.120;2023-04-22T08:13:18;17.12;60.08
13713;DHT22;6928;50.546;7.120;2023-04-22T08:15:46;17.39;58.21
13713;DHT22;6928;50.546;7.120;2023-04-22T08:18:12;17.57;58.93
13713;DHT22;6928;50.546;7.120;2023-04-22T08:20:39;17.71;59.52
13713;DHT22;6928;50.546;7.120;2023-04-22T08:23:06;17.84;57.99
13713;DHT22;6928;50.546;7.120;2023-04-22T08:25:33;17.66;57.63
13713;DHT22;6928;50.546;7.120;2023-04-22T08:28:00;17.60;58.47
13713;DHT22;6928;50.546;7.120;2023-04-22T08:30:27;17.59;59.34
13713;DHT22;6928;50.546;7.120;2023-04-22T08:32:55;17.73;57.65
13713;DHT22;6928;50.546;7.120;2023-04-22T08:35:22;17.81;58.12
13713;DHT22;6928;50.546;7.120;2023-04-22T08:37:48;17.86;56.95
13713;DHT22;6928;50.546;7.120;2023-04-22T08:40:15;17.81;57.82
13713;DHT22;6928;50.546;7.120;2023-04-22T08:42:43;18.07;56.68
13713;DHT22;6928;50.546;7.120;2023-04-22T08:45:10;17.83;57.59
13713;DHT22;6928;50.546;7.120;2023-04-22T08:47:37;17.86;57.35
13713;DHT22;6928;50.546;7.120;2023-04-22T08:50:08;17.91;58.48
13713;DHT22;6928;50.546;7.120;2023-04-22T08:52:35;17.97;58.33
13713;DHT22;6928;50.546;7.120;2023-04-22T08:55:02;17.98;58.28
13713;DHT22;6928;50.546;7.120;2023-04-22T08:57:29;18.11;58.52
13713;DHT22;6928;50.546;7.120;2023-04-22T08:59:56;18.02;56.30
13713;DHT22;6928;50.546;7.120;2023-04-22T09:02:26;18.19;55.74
13713;DHT22;6928;50.546;7.120;2023-04-22T09:04:54;18.29;54.79
13713;DHT22;6928;50.546;7.120;2023-04-22T09:07:25;18.56;54.76
13713;DHT22;6928;50.546;7.120;2023-04-22T09:09:54;18.42;53.78
13713;DHT22;6928;50.546;7.120;2023-04-22T09:12:21;18.47;54.13
13713;DHT22;6928;50.546;7.120;2023-04-22T09:14:48;18.66;53.13
13713;DHT22;6928;50.546;7.120;2023-04-22T09:17:15;19.10;53.17
13713;DHT22;6928;50.546;7.120;2023-04-22T09:19:43;19.00;52.14
13713;DHT22;6928;50.546;7.120;2023-04-22T09:22:10;18.96;51.79
13713;DHT22;6928;50.546;7.120;2023-04-22T09:24:43;19.14;53.21
13713;DHT22;6928;50.546;7.120;2023-04-22T09:27:15;19.18;52.75
13713;DHT22;6928;50.546;7.120;2023-04-22T09:29:47;18.86;52.85
13713;DHT22;6928;50.546;7.120;2023-04-22T09:32:14;18.86;54.56
13713;DHT22;6928;50.546;7.120;2023-04-22T09:34:48;19.28;52.17
13713;DHT22;6928;50.546;7.120;2023-04-22T09:37:18;19.34;52.19
13713;DHT22;6928;50.546;7.120;2023-04-22T09:39:50;19.20;51.93
13713;DHT22;6928;50.546;7.120;2023-04-22T09:42:17;19.14;51.96
13713;DHT22;6928;50.546;7.120;2023-04-22T09:44:45;18.86;51.21
13713;DHT22;6928;50.546;7.120;2023-04-22T09:47:12;18.83;51.40
13713;DHT22;6928;50.546;7.120;2023-04-22T09:49:39;19.06;52.25
13713;DHT22;6928;50.546;7.120;2023-04-22T09:52:20;19.04;52.05
13713;DHT22;6928;50.546;7.120;2023-04-22T09:54:50;19.08;52.64
13713;DHT22;6928;50.546;7.120;2023-04-22T09:57:17;19.23;52.88
13713;DHT22;6928;50.546;7.120;2023-04-22T09:59:44;19.31;52.86
13713;DHT22;6928;50.546;7.120;2023-04-22T10:02:10;19.28;53.07
13713;DHT22;6928;50.546;7.120;2023-04-22T10:04:37;19.21;52.19
13713;DHT22;6928;50.546;7.120;2023-04-22T10:07:04;19.37;52.49
13713;DHT22;6928;50.546;7.120;2023-04-22T10:09:31;19.31;51.53
13713;DHT22;6928;50.546;7.120;2023-04-22T10:12:00;19.37;52.76
13713;DHT22;6928;50.546;7.120;2023-04-22T10:14:27;19.35;52.10
13713;DHT22;6928;50.546;7.120;2023-04-22T10:16:57;19.42;51.57
13713;DHT22;6928;50.546;7.120;2023-04-22T10:19:25;19.47;51.78
13713;DHT22;6928;50.546;7.120;2023-04-22T10:21:55;19.62;51.19
13713;DHT22;6928;50.546;7.120;2023-04-22T10:24:26;19.68;50.70
13713;DHT22;6928;50.546;7.120;2023-04-22T10:26:55;19.76;51.12
13713;DHT22;6928;50.546;7.120;2023-04-22T10:29:25;19.87;50.25
13713;DHT22;6928;50.546;7.120;2023-04-22T10:31:55;19.85;49.73
13713;DHT22;6928;50.546;7.120;2023-04-22T10:34:25;19.87;49.85
13713;DHT22;6928;50.546;7.120;2023-04-22T10:36:58;20.20;49.91
13713;DHT22;6928;50.546;7.120;2023-04-22T10:39:26;20.14;49.90
13713;DHT22;6928;50.546;7.120;2023-04-22T10:42:07;20.20;49.43
13713;DHT22;6928;50.546;7.120;2023-04-22T10:44:48;19.96;50.51
13713;DHT22;6928;50.546;7.120;2023-04-22T10:47:27;20.09;49.89
13713;DHT22;6928;50.546;7.120;2023-04-22T10:50:16;20.05;50.75
13713;DHT22;6928;50.546;7.120;2023-04-22T10:52:48;20.28;50.80
13713;DHT22;6928;50.546;7.120;2023-04-22T10:55:15;20.06;50.68
13713;DHT22;6928;50.546;7.120;2023-04-22T10:57:44;19.86;50.75
13713;DHT22;6928;50.546;7.120;2023-04-22T11:00:25;19.95;51.33
13713;DHT22;6928;50.546;7.120;2023-04-22T11:03:06;20.03;51.13
13713;DHT22;6928;50.546;7.120;2023-04-22T11:05:33;20.12;51.00
13713;DHT22;6928;50.546;7.120;2023-04-22T11:08:03;20.16;51.27
13713;DHT22;6928;50.546;7.120;2023-04-22T11:10:33;20.10;51.28
13713;DHT22;6928;50.546;7.120;2023-04-22T11:13:02;19.96;51.87
13713;DHT22;6928;50.546;7.120;2023-04-22T11:15:34;20.07;51.81
13713;DHT22;6928;50.546;7.120;2023-04-22T11:18:02;20.03;52.36
13713;DHT22;6928;50.546;7.120;2023-04-22T11:20:29;20.10;52.24
13713;DHT22;6928;50.546;7.120;2023-04-22T11:22:56;19.95;52.30
13713;DHT22;6928;50.546;7.120;2023-04-22T11:25:25;20.02;52.61
13713;DHT22;6928;50.546;7.120;2023-04-22T11:27:52;19.97;53.34
13713;DHT22;6928;50.546;7.120;2023-04-22T11:30:20;20.30;52.59
13713;DHT22;6928;50.546;7.120;2023-04-22T11:32:51;20.69;52.09
13713;DHT22;6928;50.546;7.120;2023-04-22T11:35:19;20.41;52.69
13713;DHT22;6928;50.546;7.120;2023-04-22T11:37:48;20.49;53.19
13713;DHT22;6928;50.546;7.120;2023-04-22T11:40:18;20.62;52.56
13713;DHT22;6928;50.546;7.120;2023-04-22T11:42:45;20.65;52.12
13713;DHT22;6928;50.546;7.120;2023-04-22T11:45:11;20.52;52.87
13713;DHT22;6928;50.546;7.120;2023-04-22T11:47:39;20.45;53.23
13713;DHT22;6928;50.546;7.120;2023-04-22T11:50:09;20.75;53.37
13713;DHT22;6928;50.546;7.120;2023-04-22T11:52:47;20.69;52.81
13713;DHT22;6928;50.546;7.120;2023-04-22T11:55:16;20.54;52.79
13713;DHT22;6928;50.546;7.120;2023-04-22T11:57:44;20.62;53.61
13713;DHT22;6928;50.546;7.120;2023-04-22T12:00:13;20.92;52.36
13713;DHT22;6928;50.546;7.120;2023-04-22T12:02:42;21.02;52.89
13713;DHT22;6928;50.546;7.120;2023-04-22T12:05:11;20.68;53.03
13713;DHT22;6928;50.546;7.120;2023-04-22T12:07:38;20.51;53.60
13713;DHT22;6928;50.546;7.120;2023-04-22T12:10:07;20.64;53.49
13713;DHT22;6928;50.546;7.120;2023-04-22T12:12:34;20.74;53.54
13713;DHT22;6928;50.546;7.120;2023-04-22T12:15:12;20.76;53.31
13713;DHT22;6928;50.546;7.120;2023-04-22T12:17:44;20.68;53.73
13713;DHT22;6928;50.546;7.120;2023-04-22T12:20:12;20.68;53.68
13713;DHT22;6928;50.546;7.120;2023-04-22T12:22:42;20.48;53.53
13713;DHT22;6928;50.546;7.120;2023-04-22T12:25:09;20.59;53.92
13713;DHT22;6928;50.546;7.120;2023-04-22T12:27:36;20.72;53.52
13713;DHT22;6928;50.546;7.120;2023-04-22T12:30:06;20.65;53.38
13713;DHT22;6928;50.546;7.120;2023-04-22T12:32:33;20.62;53.91
13713;DHT22;6928;50.546;7.120;2023-04-22T12:35:00;20.45;54.34
13713;DHT22;6928;50.546;7.120;2023-04-22T12:37:28;20.37;54.22
13713;DHT22;6928;50.546;7.120;2023-04-22T12:39:54;20.34;54.45
13713;DHT22;6928;50.546;7.120;2023-04-22T12:42:21;20.40;54.64
13713;DHT22;6928;50.546;7.120;2023-04-22T12:44:48;20.21;54.80
13713;DHT22;6928;50.546;7.120;2023-04-22T12:47:15;20.06;55.09
13713;DHT22;6928;50.546;7.120;2023-04-22T12:49:42;19.99;55.34
13713;DHT22;6928;50.546;7.120;2023-04-22T12:52:11;19.96;55.34
13713;DHT22;6928;50.546;7.120;2023-04-22T12:54:39;19.93;55.03
13713;DHT22;6928;50.546;7.120;2023-04-22T12:57:05;19.93;55.32
13713;DHT22;6928;50.546;7.120;2023-04-22T12:59:32;19.86;55.05
13713;DHT22;6928;50.546;7.120;2023-04-22T13:01:59;19.89;55.40
13713;DHT22;6928;50.546;7.120;2023-04-22T13:04:26;19.87;55.24
13713;DHT22;6928;50.546;7.120;2023-04-22T13:06:52;19.83;55.72
13713;DHT22;6928;50.546;7.120;2023-04-22T13:09:45;19.93;55.42
13713;DHT22;6928;50.546;7.120;2023-04-22T13:12:12;19.90;55.41
13713;DHT22;6928;50.546;7.120;2023-04-22T13:14:39;19.83;55.55
13713;DHT22;6928;50.546;7.120;2023-04-22T13:17:06;19.99;55.57
13713;DHT22;6928;50.546;7.120;2023-04-22T13:19:33;19.97;56.17
13713;DHT22;6928;50.546;7.120;2023-04-22T13:22:00;19.87;55.78
13713;DHT22;6928;50.546;7.120;2023-04-22T13:24:27;19.87;55.96
13713;DHT22;6928;50.546;7.120;2023-04-22T13:26:56;19.86;55.50
13713;DHT22;6928;50.546;7.120;2023-04-22T13:29:23;19.89;56.00
13713;DHT22;6928;50.546;7.120;2023-04-22T13:31:50;19.82;55.68
13713;DHT22;6928;50.546;7.120;2023-04-22T13:34:17;19.73;55.59
13713;DHT22;6928;50.546;7.120;2023-04-22T13:36:44;19.85;55.44
13713;DHT22;6928;50.546;7.120;2023-04-22T13:39:11;19.78;55.66
13713;DHT22;6928;50.546;7.120;2023-04-22T13:41:38;19.62;55.11
13713;DHT22;6928;50.546;7.120;2023-04-22T13:44:06;19.58;55.16
13713;DHT22;6928;50.546;7.120;2023-04-22T13:46:33;19.54;55.35
13713;DHT22;6928;50.546;7.120;2023-04-22T13:48:59;19.59;55.61
13713;DHT22;6928;50.546;7.120;2023-04-22T13:51:26;19.65;55.51
13713;DHT22;6928;50.546;7.120;2023-04-22T13:53:53;19.65;56.01
13713;DHT22;6928;50.546;7.120;2023-04-22T13:56:20;19.59;56.26
13713;DHT22;6928;50.546;7.120;2023-04-22T13:58:47;19.59;55.61
13713;DHT22;6928;50.546;7.120;2023-04-22T14:01:15;19.51;55.65
13713;DHT22;6928;50.546;7.120;2023-04-22T14:03:42;19.51;56.07
13713;DHT22;6928;50.546;7.120;2023-04-22T14:06:09;19.42;56.02
13713;DHT22;6928;50.546;7.120;2023-04-22T14:08:37;19.42;56.16
13713;DHT22;6928;50.546;7.120;2023-04-22T14:11:06;19.41;56.26
13713;DHT22;6928;50.546;7.120;2023-04-22T14:13:33;19.34;56.10
13713;DHT22;6928;50.546;7.120;2023-04-22T14:16:01;19.31;56.21
13713;DHT22;6928;50.546;7.120;2023-04-22T14:18:33;19.42;55.94
13713;DHT22;6928;50.546;7.120;2023-04-22T14:21:03;19.57;55.78
13713;DHT22;6928;50.546;7.120;2023-04-22T14:23:30;19.49;55.62
13713;DHT22;6928;50.546;7.120;2023-04-22T14:25:57;19.61;55.60
13713;DHT22;6928;50.546;7.120;2023-04-22T14:28:24;19.58;55.78
13713;DHT22;6928;50.546;7.120;2023-04-22T14:30:51;19.47;56.26
13713;DHT22;6928;50.546;7.120;2023-04-22T14:33:18;19.61;56.25
13713;DHT22;6928;50.546;7.120;2023-04-22T14:35:46;19.55;56.37
13713;DHT22;6928;50.546;7.120;2023-04-22T14:38:13;19.42;56.63
13713;DHT22;6928;50.546;7.120;2023-04-22T14:40:40;19.37;56.64
13713;DHT22;6928;50.546;7.120;2023-04-22T14:43:07;19.38;57.19
13713;DHT22;6928;50.546;7.120;2023-04-22T14:45:33;19.32;57.08
13713;DHT22;6928;50.546;7.120;2023-04-22T14:48:00;19.26;57.19
13713;DHT22;6928;50.546;7.120;2023-04-22T14:50:27;19.30;57.36
13713;DHT22;6928;50.546;7.120;2023-04-22T14:52:55;19.30;57.40
13713;DHT22;6928;50.546;7.120;2023-04-22T14:55:24;19.38;57.59
13713;DHT22;6928;50.546;7.120;2023-04-22T14:57:54;19.35;58.03
13713;DHT22;6928;50.546;7.120;2023-04-22T15:00:22;19.35;58.48
13713;DHT22;6928;50.546;7.120;2023-04-22T15:02:49;19.31;58.66
13713;DHT22;6928;50.546;7.120;2023-04-22T15:05:16;19.31;58.53
13713;DHT22;6928;50.546;7.120;2023-04-22T15:07:43;19.12;58.77
13713;DHT22;6928;50.546;7.120;2023-04-22T15:10:11;19.18;59.11
13713;DHT22;6928;50.546;7.120;2023-04-22T15:12:38;19.12;59.27
13713;DHT22;6928;50.546;7.120;2023-04-22T15:15:07;19.04;58.64
13713;DHT22;6928;50.546;7.120;2023-04-22T15:17:34;18.98;58.86
13713;DHT22;6928;50.546;7.120;2023-04-22T15:20:01;18.94;59.01
13713;DHT22;6928;50.546;7.120;2023-04-22T15:22:28;18.94;59.37
13713;DHT22;6928;50.546;7.120;2023-04-22T15:24:55;18.90;59.85
13713;DHT22;6928;50.546;7.120;2023-04-22T15:27:23;18.77;59.64
13713;DHT22;6928;50.546;7.120;2023-04-22T15:29:51;18.79;59.44
13713;DHT22;6928;50.546;7.120;2023-04-22T15:32:19;18.79;59.57
13713;DHT22;6928;50.546;7.120;2023-04-22T15:34:46;18.69;60.14
13713;DHT22;6928;50.546;7.120;2023-04-22T15:37:14;18.68;60.16
13713;DHT22;6928;50.546;7.120;2023-04-22T15:39:42;18.63;60.32
13713;DHT22;6928;50.546;7.120;2023-04-22T15:42:08;18.63;60.44
13713;DHT22;6928;50.546;7.120;2023-04-22T15:44:37;18.63;60.63
13713;DHT22;6928;50.546;7.120;2023-04-22T15:47:03;18.62;60.55
13713;DHT22;6928;50.546;7.120;2023-04-22T15:49:31;18.55;60.87
13713;DHT22;6928;50.546;7.120;2023-04-22T15:51:58;18.62;61.00
13713;DHT22;6928;50.546;7.120;2023-04-22T15:54:25;18.56;60.99
13713;DHT22;6928;50.546;7.120;2023-04-22T15:56:52;18.52;61.00